sensor_id;sensor_type;location;lat;lon;timestamp;P1;durP1;ratioP1;P2;durP2;ratioP2
18580;SDS011;9420;50.876;7.012;2023-08-17T00:02:12;9.27;;;6.43;;
18580;SDS011;9420;50.876;7.012;2023-08-17T00:04:39;8.83;;;7.40;;
18580;SDS011;9420;50.876;7.012;2023-08-17T00:07:06;7.93;;;6.37;;
18580;SDS011;9420;50.876;7.012;2023-08-17T00:09:34;12.77;;;7.47;;
18580;SDS011;9420;50.876;7.012;2023-08-17T00:12:01;9.27;;;6.90;;
18580;SDS011;9420;50.876;7.012;2023-08-17T00:14:28;9.33;;;7.33;;
18580;SDS011;9420;50.876;7.012;2023-08-17T00:16:55;9.73;;;6.77;;
18580;SDS011;9420;50.876;7.012;2023-08-17T00:19:22;8.20;;;7.30;;
18580;SDS011;9420;50.876;7.012;2023-08-17T00:21:49;9.73;;;6.97;;
18580;SDS011;9420;50.876;7.012;2023-08-17T00:24:17;11.13;;;8.77;;
18580;SDS011;9420;50.876;7.012;2023-08-17T00:26:45;9.27;;;7.43;;
18580;SDS011;9420;50.876;7.012;2023-08-17T00:29:12;9.80;;;8.13;;
18580;SDS011;9420;50.876;7.012;2023-08-17T00:31:40;10.23;;;8.17;;
18580;SDS011;9420;50.876;7.012;2023-08-17T00:34:06;8.93;;;7.10;;
18580;SDS011;9420;50.876;7.012;2023-08-17T00:36:33;10.70;;;7.57;;
18580;SDS011;9420;50.876;7.012;2023-08-17T00:39:00;11.80;;;7.40;;
18580;SDS011;9420;50.876;7.012;2023-08-17T00:41:27;9.30;;;6.33;;
18580;SDS011;9420;50.876;7.012;2023-08-17T00:43:56;6.80;;;6.10;;
18580;SDS011;9420;50.876;7.012;2023-08-17T00:46:23;10.33;;;6.33;;
18580;SDS011;9420;50.876;7.012;2023-08-17T00:48:50;6.93;;;6.03;;
18580;SDS011;9420;50.876;7.012;2023-08-17T00:51:17;7.10;;;5.47;;
18580;SDS011;9420;50.876;7.012;2023-08-17T00:53:45;7.03;;;5.43;;
18580;SDS011;9420;50.876;7.012;2023-08-17T00:56:12;7.60;;;5.40;;
18580;SDS011;9420;50.876;7.012;2023-08-17T00:58:39;13.17;;;5.90;;
18580;SDS011;9420;50.876;7.012;2023-08-17T01:01:07;7.77;;;6.17;;
18580;SDS011;9420;50.876;7.012;2023-08-17T01:03:33;10.13;;;5.20;;
18580;SDS011;9420;50.876;7.012;2023-08-17T01:06:01;9.67;;;5.63;;
18580;SDS011;9420;50.876;7.012;2023-08-17T01:08:28;12.53;;;6.33;;
18580;SDS011;9420;50.876;7.012;2023-08-17T01:10:57;8.07;;;5.67;;
18580;SDS011;9420;50.876;7.012;2023-08-17T01:13:31;9.27;;;4.80;;
18580;SDS011;9420;50.876;7.012;2023-08-17T01:16:02;10.10;;;6.17;;
18580;SDS011;9420;50.876;7.012;2023-08-17T01:18:36;7.80;;;5.90;;
18580;SDS011;9420;50.876;7.012;2023-08-17T01:21:06;7.07;;;4.93;;
18580;SDS011;9420;50.876;7.012;2023-08-17T01:23:35;7.73;;;5.70;;
18580;SDS011;9420;50.876;7.012;2023-08-17T01:26:02;6.17;;;5.03;;
18580;SDS011;9420;50.876;7.012;2023-08-17T01:28:28;9.70;;;5.60;;
18580;SDS011;9420;50.876;7.012;2023-08-17T01:30:55;7.20;;;5.30;;
18580;SDS011;9420;50.876;7.012;2023-08-17T01:33:26;7.70;;;5.83;;
18580;SDS011;9420;50.876;7.012;2023-08-17T01:36:00;5.63;;;4.83;;
18580;SDS011;9420;50.876;7.012;2023-08-17T01:38:31;8.80;;;5.33;;
18580;SDS011;9420;50.876;7.012;2023-08-17T01:41:01;6.67;;;5.23;;
18580;SDS011;9420;50.876;7.012;2023-08-17T01:43:29;10.77;;;6.50;;
18580;SDS011;9420;50.876;7.012;2023-08-17T01:45:56;12.33;;;5.90;;
18580;SDS011;9420;50.876;7.012;2023-08-17T01:48:23;10.00;;;6.10;;
18580;SDS011;9420;50.876;7.012;2023-08-17T01:50:50;9.13;;;5.67;;
18580;SDS011;9420;50.876;7.012;2023-08-17T01:53:16;10.53;;;5.87;;
18580;SDS011;9420;50.876;7.012;2023-08-17T01:55:43;7.50;;;5.50;;
18580;SDS011;9420;50.876;7.012;2023-08-17T01:58:11;11.80;;;5.87;;
18580;SDS011;9420;50.876;7.012;2023-08-17T02:00:38;7.43;;;5.40;;
18580;SDS011;9420;50.876;7.012;2023-08-17T02:03:04;6.40;;;5.03;;
18580;SDS011;9420;50.876;7.012;2023-08-17T02:05:31;7.20;;;4.90;;
18580;SDS011;9420;50.876;7.012;2023-08-17T02:07:58;8.47;;;5.47;;
18580;SDS011;9420;50.876;7.012;2023-08-17T02:10:24;9.17;;;5.20;;
18580;SDS011;9420;50.876;7.012;2023-08-17T02:12:51;10.40;;;6.10;;
18580;SDS011;9420;50.876;7.012;2023-08-17T02:15:19;9.97;;;4.70;;
18580;SDS011;9420;50.876;7.012;2023-08-17T02:17:45;6.93;;;4.73;;
18580;SDS011;9420;50.876;7.012;2023-08-17T02:20:12;6.60;;;5.00;;
18580;SDS011;9420;50.876;7.012;2023-08-17T02:22:39;6.63;;;4.80;;
18580;SDS011;9420;50.876;7.012;2023-08-17T02:25:06;9.43;;;5.23;;
18580;SDS011;9420;50.876;7.012;2023-08-17T02:27:33;11.00;;;4.90;;
18580;SDS011;9420;50.876;7.012;2023-08-17T02:30:00;6.57;;;4.83;;
18580;SDS011;9420;50.876;7.012;2023-08-17T02:32:28;12.03;;;5.57;;
18580;SDS011;9420;50.876;7.012;2023-08-17T02:34:55;8.73;;;5.27;;
18580;SDS011;9420;50.876;7.012;2023-08-17T02:37:21;6.10;;;5.23;;
18580;SDS011;9420;50.876;7.012;2023-08-17T02:39:48;10.33;;;5.30;;
18580;SDS011;9420;50.876;7.012;2023-08-17T02:42:14;9.40;;;4.97;;
18580;SDS011;9420;50.876;7.012;2023-08-17T02:44:41;9.43;;;5.50;;
18580;SDS011;9420;50.876;7.012;2023-08-17T02:47:07;5.23;;;4.60;;
18580;SDS011;9420;50.876;7.012;2023-08-17T02:49:35;7.93;;;5.23;;
18580;SDS011;9420;50.876;7.012;2023-08-17T02:52:02;5.30;;;4.80;;
18580;SDS011;9420;50.876;7.012;2023-08-17T02:54:31;8.13;;;4.70;;
18580;SDS011;9420;50.876;7.012;2023-08-17T02:56:59;10.00;;;4.75;;
18580;SDS011;9420;50.876;7.012;2023-08-17T02:59:26;7.93;;;4.40;;
18580;SDS011;9420;50.876;7.012;2023-08-17T03:01:53;6.97;;;5.53;;
18580;SDS011;9420;50.876;7.012;2023-08-17T03:04:19;7.73;;;4.90;;
18580;SDS011;9420;50.876;7.012;2023-08-17T03:06:47;8.23;;;4.53;;
18580;SDS011;9420;50.876;7.012;2023-08-17T03:09:14;6.80;;;5.33;;
18580;SDS011;9420;50.876;7.012;2023-08-17T03:11:40;5.87;;;4.40;;
18580;SDS011;9420;50.876;7.012;2023-08-17T03:14:07;8.57;;;4.27;;
18580;SDS011;9420;50.876;7.012;2023-08-17T03:16:34;5.93;;;4.37;;
18580;SDS011;9420;50.876;7.012;2023-08-17T03:19:00;10.67;;;4.90;;
18580;SDS011;9420;50.876;7.012;2023-08-17T03:21:27;5.13;;;4.47;;
18580;SDS011;9420;50.876;7.012;2023-08-17T03:23:56;8.77;;;5.20;;
18580;SDS011;9420;50.876;7.012;2023-08-17T03:26:23;7.13;;;4.63;;
18580;SDS011;9420;50.876;7.012;2023-08-17T03:28:49;5.43;;;4.37;;
18580;SDS011;9420;50.876;7.012;2023-08-17T03:31:16;5.87;;;5.27;;
18580;SDS011;9420;50.876;7.012;2023-08-17T03:33:43;6.73;;;5.33;;
18580;SDS011;9420;50.876;7.012;2023-08-17T03:36:09;8.67;;;5.10;;
18580;SDS011;9420;50.876;7.012;2023-08-17T03:38:36;6.30;;;5.27;;
18580;SDS011;9420;50.876;7.012;2023-08-17T03:41:05;7.93;;;4.47;;
18580;SDS011;9420;50.876;7.012;2023-08-17T03:43:32;5.27;;;4.70;;
18580;SDS011;9420;50.876;7.012;2023-08-17T03:45:59;5.63;;;4.87;;
18580;SDS011;9420;50.876;7.012;2023-08-17T03:48:25;7.70;;;4.83;;
18580;SDS011;9420;50.876;7.012;2023-08-17T03:50:52;6.67;;;4.77;;
18580;SDS011;9420;50.876;7.012;2023-08-17T03:53:20;7.73;;;5.47;;
18580;SDS011;9420;50.876;7.012;2023-08-17T03:55:47;7.43;;;5.00;;
18580;SDS011;9420;50.876;7.012;2023-08-17T03:58:15;7.13;;;5.57;;
18580;SDS011;9420;50.876;7.012;2023-08-17T04:00:48;9.33;;;5.33;;
18580;SDS011;9420;50.876;7.012;2023-08-17T04:03:15;8.47;;;5.17;;
18580;SDS011;9420;50.876;7.012;2023-08-17T04:05:42;7.57;;;5.10;;
18580;SDS011;9420;50.876;7.012;2023-08-17T04:08:08;9.00;;;5.13;;
18580;SDS011;9420;50.876;7.012;2023-08-17T04:10:35;5.33;;;4.87;;
18580;SDS011;9420;50.876;7.012;2023-08-17T04:13:02;7.43;;;4.00;;
18580;SDS011;9420;50.876;7.012;2023-08-17T04:15:30;5.60;;;4.87;;
18580;SDS011;9420;50.876;7.012;2023-08-17T04:17:56;7.20;;;4.60;;
18580;SDS011;9420;50.876;7.012;2023-08-17T04:20:23;8.17;;;5.03;;
18580;SDS011;9420;50.876;7.012;2023-08-17T04:22:50;8.27;;;5.37;;
18580;SDS011;9420;50.876;7.012;2023-08-17T04:25:17;5.20;;;4.70;;
18580;SDS011;9420;50.876;7.012;2023-08-17T04:27:44;6.20;;;4.30;;
18580;SDS011;9420;50.876;7.012;2023-08-17T04:30:11;5.13;;;4.63;;
18580;SDS011;9420;50.876;7.012;2023-08-17T04:32:40;6.87;;;5.47;;
18580;SDS011;9420;50.876;7.012;2023-08-17T04:35:07;6.47;;;4.53;;
18580;SDS011;9420;50.876;7.012;2023-08-17T04:37:34;8.37;;;4.83;;
18580;SDS011;9420;50.876;7.012;2023-08-17T04:40:01;7.87;;;4.77;;
18580;SDS011;9420;50.876;7.012;2023-08-17T04:42:28;6.13;;;4.33;;
18580;SDS011;9420;50.876;7.012;2023-08-17T04:44:55;8.93;;;6.00;;
18580;SDS011;9420;50.876;7.012;2023-08-17T04:47:22;7.80;;;5.00;;
18580;SDS011;9420;50.876;7.012;2023-08-17T04:49:50;7.00;;;5.10;;
18580;SDS011;9420;50.876;7.012;2023-08-17T04:52:18;6.67;;;4.40;;
18580;SDS011;9420;50.876;7.012;2023-08-17T04:54:44;9.07;;;4.30;;
18580;SDS011;9420;50.876;7.012;2023-08-17T04:57:11;6.77;;;4.60;;
18580;SDS011;9420;50.876;7.012;2023-08-17T04:59:38;8.73;;;5.00;;
18580;SDS011;9420;50.876;7.012;2023-08-17T05:02:04;4.97;;;4.57;;
18580;SDS011;9420;50.876;7.012;2023-08-17T05:04:31;4.97;;;4.33;;
18580;SDS011;9420;50.876;7.012;2023-08-17T05:06:59;11.27;;;4.80;;
18580;SDS011;9420;50.876;7.012;2023-08-17T05:09:26;10.80;;;4.60;;
18580;SDS011;9420;50.876;7.012;2023-08-17T05:11:52;13.10;;;5.47;;
18580;SDS011;9420;50.876;7.012;2023-08-17T05:14:19;6.10;;;4.53;;
18580;SDS011;9420;50.876;7.012;2023-08-17T05:16:46;9.17;;;4.70;;
18580;SDS011;9420;50.876;7.012;2023-08-17T05:19:13;8.50;;;5.60;;
18580;SDS011;9420;50.876;7.012;2023-08-17T05:21:40;9.50;;;4.83;;
18580;SDS011;9420;50.876;7.012;2023-08-17T05:24:15;8.13;;;5.10;;
18580;SDS011;9420;50.876;7.012;2023-08-17T05:26:42;5.30;;;4.67;;
18580;SDS011;9420;50.876;7.012;2023-08-17T05:29:09;4.63;;;4.23;;
18580;SDS011;9420;50.876;7.012;2023-08-17T05:31:36;4.63;;;4.13;;
18580;SDS011;9420;50.876;7.012;2023-08-17T05:34:04;4.83;;;4.30;;
18580;SDS011;9420;50.876;7.012;2023-08-17T05:36:30;6.53;;;4.90;;
18580;SDS011;9420;50.876;7.012;2023-08-17T05:38:58;6.87;;;4.60;;
18580;SDS011;9420;50.876;7.012;2023-08-17T05:41:27;9.60;;;5.73;;
18580;SDS011;9420;50.876;7.012;2023-08-17T05:43:53;7.13;;;4.83;;
18580;SDS011;9420;50.876;7.012;2023-08-17T05:46:20;4.93;;;4.10;;
18580;SDS011;9420;50.876;7.012;2023-08-17T05:48:46;5.17;;;4.63;;
18580;SDS011;9420;50.876;7.012;2023-08-17T05:51:15;5.03;;;4.43;;
18580;SDS011;9420;50.876;7.012;2023-08-17T05:53:42;6.87;;;5.47;;
18580;SDS011;9420;50.876;7.012;2023-08-17T05:56:09;11.17;;;5.40;;
18580;SDS011;9420;50.876;7.012;2023-08-17T05:58:37;5.60;;;4.13;;
18580;SDS011;9420;50.876;7.012;2023-08-17T06:01:04;11.50;;;5.33;;
18580;SDS011;9420;50.876;7.012;2023-08-17T06:03:32;11.03;;;5.80;;
18580;SDS011;9420;50.876;7.012;2023-08-17T06:05:59;9.37;;;5.37;;
18580;SDS011;9420;50.876;7.012;2023-08-17T06:08:25;7.90;;;5.17;;
18580;SDS011;9420;50.876;7.012;2023-08-17T06:10:53;8.90;;;6.10;;
18580;SDS011;9420;50.876;7.012;2023-08-17T06:13:20;9.50;;;6.07;;
18580;SDS011;9420;50.876;7.012;2023-08-17T06:15:48;8.17;;;5.90;;
18580;SDS011;9420;50.876;7.012;2023-08-17T06:18:15;9.23;;;5.77;;
18580;SDS011;9420;50.876;7.012;2023-08-17T06:20:42;9.00;;;6.23;;
18580;SDS011;9420;50.876;7.012;2023-08-17T06:23:11;6.33;;;5.60;;
18580;SDS011;9420;50.876;7.012;2023-08-17T06:25:38;10.33;;;6.53;;
18580;SDS011;9420;50.876;7.012;2023-08-17T06:28:05;12.03;;;6.73;;
18580;SDS011;9420;50.876;7.012;2023-08-17T06:30:32;7.97;;;6.83;;
18580;SDS011;9420;50.876;7.012;2023-08-17T06:33:00;14.23;;;7.53;;
18580;SDS011;9420;50.876;7.012;2023-08-17T06:35:27;12.40;;;8.37;;
18580;SDS011;9420;50.876;7.012;2023-08-17T06:37:53;14.20;;;7.87;;
18580;SDS011;9420;50.876;7.012;2023-08-17T06:40:22;12.30;;;7.93;;
18580;SDS011;9420;50.876;7.012;2023-08-17T06:42:49;9.43;;;8.13;;
18580;SDS011;9420;50.876;7.012;2023-08-17T06:45:17;11.53;;;8.37;;
18580;SDS011;9420;50.876;7.012;2023-08-17T06:47:44;11.10;;;7.30;;
18580;SDS011;9420;50.876;7.012;2023-08-17T06:50:12;9.97;;;6.43;;
18580;SDS011;9420;50.876;7.012;2023-08-17T06:52:39;9.77;;;6.23;;
18580;SDS011;9420;50.876;7.012;2023-08-17T06:55:06;10.83;;;7.17;;
18580;SDS011;9420;50.876;7.012;2023-08-17T06:57:33;10.00;;;6.77;;
18580;SDS011;9420;50.876;7.012;2023-08-17T06:59:59;9.80;;;7.13;;
18580;SDS011;9420;50.876;7.012;2023-08-17T07:02:26;10.07;;;6.83;;
18580;SDS011;9420;50.876;7.012;2023-08-17T07:04:53;14.33;;;7.17;;
18580;SDS011;9420;50.876;7.012;2023-08-17T07:07:21;8.47;;;6.77;;
18580;SDS011;9420;50.876;7.012;2023-08-17T07:09:47;10.47;;;7.27;;
18580;SDS011;9420;50.876;7.012;2023-08-17T07:12:14;9.73;;;7.50;;
18580;SDS011;9420;50.876;7.012;2023-08-17T07:14:40;10.47;;;6.87;;
18580;SDS011;9420;50.876;7.012;2023-08-17T07:17:07;13.10;;;8.07;;
18580;SDS011;9420;50.876;7.012;2023-08-17T07:19:34;11.10;;;7.40;;
18580;SDS011;9420;50.876;7.012;2023-08-17T07:22:01;15.57;;;7.77;;
18580;SDS011;9420;50.876;7.012;2023-08-17T07:24:28;9.67;;;6.97;;
18580;SDS011;9420;50.876;7.012;2023-08-17T07:26:55;9.13;;;6.63;;
18580;SDS011;9420;50.876;7.012;2023-08-17T07:29:23;14.10;;;6.93;;
18580;SDS011;9420;50.876;7.012;2023-08-17T07:31:49;9.23;;;6.83;;
18580;SDS011;9420;50.876;7.012;2023-08-17T07:34:16;9.87;;;6.87;;
18580;SDS011;9420;50.876;7.012;2023-08-17T07:36:43;10.80;;;7.70;;
18580;SDS011;9420;50.876;7.012;2023-08-17T07:39:09;8.67;;;7.27;;
18580;SDS011;9420;50.876;7.012;2023-08-17T07:41:37;9.03;;;7.93;;
18580;SDS011;9420;50.876;7.012;2023-08-17T07:44:04;9.27;;;7.63;;
18580;SDS011;9420;50.876;7.012;2023-08-17T07:46:31;9.47;;;7.60;;
18580;SDS011;9420;50.876;7.012;2023-08-17T07:48:58;10.50;;;6.57;;
18580;SDS011;9420;50.876;7.012;2023-08-17T07:51:24;20.80;;;8.87;;
18580;SDS011;9420;50.876;7.012;2023-08-17T07:53:51;12.40;;;7.23;;
18580;SDS011;9420;50.876;7.012;2023-08-17T07:56:17;11.37;;;7.20;;
18580;SDS011;9420;50.876;7.012;2023-08-17T07:58:45;11.30;;;8.40;;
18580;SDS011;9420;50.876;7.012;2023-08-17T08:01:12;8.93;;;6.60;;
18580;SDS011;9420;50.876;7.012;2023-08-17T08:03:39;13.00;;;8.33;;
18580;SDS011;9420;50.876;7.012;2023-08-17T08:06:05;13.83;;;7.20;;
18580;SDS011;9420;50.876;7.012;2023-08-17T08:08:32;12.77;;;8.33;;
18580;SDS011;9420;50.876;7.012;2023-08-17T08:10:58;13.00;;;7.10;;
18580;SDS011;9420;50.876;7.012;2023-08-17T08:13:25;13.13;;;7.87;;
18580;SDS011;9420;50.876;7.012;2023-08-17T08:15:53;11.90;;;8.10;;
18580;SDS011;9420;50.876;7.012;2023-08-17T08:18:20;12.23;;;7.13;;
18580;SDS011;9420;50.876;7.012;2023-08-17T08:20:47;16.97;;;8.47;;
18580;SDS011;9420;50.876;7.012;2023-08-17T08:23:14;13.90;;;8.13;;
18580;SDS011;9420;50.876;7.012;2023-08-17T08:25:41;13.00;;;8.77;;
18580;SDS011;9420;50.876;7.012;2023-08-17T08:28:07;14.07;;;8.73;;
18580;SDS011;9420;50.876;7.012;2023-08-17T08:30:34;17.40;;;10.43;;
18580;SDS011;9420;50.876;7.012;2023-08-17T08:33:02;20.57;;;10.53;;
18580;SDS011;9420;50.876;7.012;2023-08-17T08:35:29;17.27;;;10.37;;
18580;SDS011;9420;50.876;7.012;2023-08-17T08:37:58;16.97;;;9.87;;
18580;SDS011;9420;50.876;7.012;2023-08-17T08:40:26;22.00;;;11.47;;
18580;SDS011;9420;50.876;7.012;2023-08-17T08:42:54;13.30;;;9.63;;
18580;SDS011;9420;50.876;7.012;2023-08-17T08:45:22;19.57;;;9.77;;
18580;SDS011;9420;50.876;7.012;2023-08-17T08:47:50;18.40;;;10.10;;
18580;SDS011;9420;50.876;7.012;2023-08-17T08:50:19;19.33;;;10.67;;
18580;SDS011;9420;50.876;7.012;2023-08-17T08:52:49;22.47;;;10.20;;
18580;SDS011;9420;50.876;7.012;2023-08-17T08:55:21;21.53;;;9.93;;
18580;SDS011;9420;50.876;7.012;2023-08-17T08:57:49;18.63;;;9.13;;
18580;SDS011;9420;50.876;7.012;2023-08-17T09:00:18;18.37;;;10.00;;
18580;SDS011;9420;50.876;7.012;2023-08-17T09:02:46;12.57;;;9.70;;
18580;SDS011;9420;50.876;7.012;2023-08-17T09:05:13;16.93;;;10.67;;
18580;SDS011;9420;50.876;7.012;2023-08-17T09:07:41;18.33;;;11.20;;
18580;SDS011;9420;50.876;7.012;2023-08-17T09:10:09;15.20;;;10.07;;
18580;SDS011;9420;50.876;7.012;2023-08-17T09:12:36;16.53;;;11.27;;
18580;SDS011;9420;50.876;7.012;2023-08-17T09:15:02;12.53;;;9.07;;
18580;SDS011;9420;50.876;7.012;2023-08-17T09:17:32;17.10;;;10.43;;
18580;SDS011;9420;50.876;7.012;2023-08-17T09:19:59;16.80;;;8.80;;
18580;SDS011;9420;50.876;7.012;2023-08-17T09:22:36;16.47;;;8.87;;
18580;SDS011;9420;50.876;7.012;2023-08-17T09:25:06;13.10;;;8.77;;
18580;SDS011;9420;50.876;7.012;2023-08-17T09:27:33;14.90;;;8.60;;
18580;SDS011;9420;50.876;7.012;2023-08-17T09:30:02;13.77;;;8.07;;
18580;SDS011;9420;50.876;7.012;2023-08-17T09:32:30;13.17;;;7.37;;
18580;SDS011;9420;50.876;7.012;2023-08-17T09:34:57;15.18;;;8.10;;
18580;SDS011;9420;50.876;7.012;2023-08-17T09:37:28;18.25;;;8.93;;
18580;SDS011;9420;50.876;7.012;2023-08-17T09:39:55;17.80;;;9.87;;
18580;SDS011;9420;50.876;7.012;2023-08-17T09:42:23;18.37;;;10.43;;
18580;SDS011;9420;50.876;7.012;2023-08-17T09:44:51;16.00;;;10.00;;
18580;SDS011;9420;50.876;7.012;2023-08-17T09:47:18;23.03;;;10.80;;
18580;SDS011;9420;50.876;7.012;2023-08-17T09:49:47;15.07;;;9.97;;
18580;SDS011;9420;50.876;7.012;2023-08-17T09:52:14;23.30;;;10.23;;
18580;SDS011;9420;50.876;7.012;2023-08-17T09:54:41;11.40;;;7.97;;
18580;SDS011;9420;50.876;7.012;2023-08-17T09:57:09;13.03;;;8.23;;
18580;SDS011;9420;50.876;7.012;2023-08-17T09:59:37;14.80;;;9.27;;
18580;SDS011;9420;50.876;7.012;2023-08-17T10:02:04;15.50;;;9.17;;
18580;SDS011;9420;50.876;7.012;2023-08-17T10:04:41;14.40;;;8.70;;
18580;SDS011;9420;50.876;7.012;2023-08-17T10:07:08;13.97;;;9.53;;
18580;SDS011;9420;50.876;7.012;2023-08-17T10:09:39;13.17;;;8.00;;
18580;SDS011;9420;50.876;7.012;2023-08-17T10:12:09;14.70;;;9.23;;
18580;SDS011;9420;50.876;7.012;2023-08-17T10:14:42;16.57;;;10.00;;
18580;SDS011;9420;50.876;7.012;2023-08-17T10:17:16;14.77;;;8.57;;
18580;SDS011;9420;50.876;7.012;2023-08-17T10:19:49;16.83;;;10.03;;
18580;SDS011;9420;50.876;7.012;2023-08-17T10:22:20;15.17;;;7.63;;
18580;SDS011;9420;50.876;7.012;2023-08-17T10:24:51;12.80;;;7.75;;
18580;SDS011;9420;50.876;7.012;2023-08-17T10:27:20;12.20;;;6.80;;
18580;SDS011;9420;50.876;7.012;2023-08-17T10:29:48;12.13;;;7.72;;
18580;SDS011;9420;50.876;7.012;2023-08-17T10:32:17;7.85;;;6.25;;
18580;SDS011;9420;50.876;7.012;2023-08-17T10:34:44;11.68;;;6.80;;
18580;SDS011;9420;50.876;7.012;2023-08-17T10:37:11;13.40;;;7.93;;
18580;SDS011;9420;50.876;7.012;2023-08-17T10:39:44;14.25;;;7.80;;
18580;SDS011;9420;50.876;7.012;2023-08-17T10:42:11;11.65;;;7.38;;
18580;SDS011;9420;50.876;7.012;2023-08-17T10:44:39;13.52;;;8.27;;
18580;SDS011;9420;50.876;7.012;2023-08-17T10:47:24;13.88;;;7.75;;
18580;SDS011;9420;50.876;7.012;2023-08-17T10:49:52;12.55;;;7.43;;
18580;SDS011;9420;50.876;7.012;2023-08-17T10:52:26;9.95;;;7.05;;
18580;SDS011;9420;50.876;7.012;2023-08-17T10:54:54;7.65;;;5.60;;
18580;SDS011;9420;50.876;7.012;2023-08-17T10:57:25;10.68;;;6.22;;
18580;SDS011;9420;50.876;7.012;2023-08-17T11:00:04;10.75;;;6.40;;
18580;SDS011;9420;50.876;7.012;2023-08-17T11:02:34;8.70;;;7.18;;
18580;SDS011;9420;50.876;7.012;2023-08-17T11:05:01;10.45;;;7.65;;
18580;SDS011;9420;50.876;7.012;2023-08-17T11:07:29;8.85;;;6.55;;
18580;SDS011;9420;50.876;7.012;2023-08-17T11:10:10;11.75;;;7.10;;
18580;SDS011;9420;50.876;7.012;2023-08-17T11:12:38;8.43;;;6.30;;
18580;SDS011;9420;50.876;7.012;2023-08-17T11:15:07;8.95;;;6.63;;
18580;SDS011;9420;50.876;7.012;2023-08-17T11:17:35;10.50;;;6.53;;
18580;SDS011;9420;50.876;7.012;2023-08-17T11:20:02;11.18;;;6.47;;
18580;SDS011;9420;50.876;7.012;2023-08-17T11:22:30;8.88;;;6.22;;
18580;SDS011;9420;50.876;7.012;2023-08-17T11:24:57;9.38;;;6.93;;
18580;SDS011;9420;50.876;7.012;2023-08-17T11:27:24;9.75;;;7.72;;
18580;SDS011;9420;50.876;7.012;2023-08-17T11:29:51;12.95;;;7.80;;
18580;SDS011;9420;50.876;7.012;2023-08-17T11:32:18;10.35;;;7.60;;
18580;SDS011;9420;50.876;7.012;2023-08-17T11:34:46;11.35;;;7.55;;
18580;SDS011;9420;50.876;7.012;2023-08-17T11:37:12;12.50;;;6.75;;
18580;SDS011;9420;50.876;7.012;2023-08-17T11:39:39;8.68;;;6.22;;
18580;SDS011;9420;50.876;7.012;2023-08-17T11:42:06;10.10;;;6.22;;
18580;SDS011;9420;50.876;7.012;2023-08-17T11:44:33;8.60;;;6.63;;
18580;SDS011;9420;50.876;7.012;2023-08-17T11:47:00;9.02;;;5.72;;
18580;SDS011;9420;50.876;7.012;2023-08-17T11:49:26;13.40;;;7.10;;
18580;SDS011;9420;50.876;7.012;2023-08-17T11:51:55;10.57;;;7.00;;
18580;SDS011;9420;50.876;7.012;2023-08-17T11:54:22;10.98;;;6.38;;
18580;SDS011;9420;50.876;7.012;2023-08-17T11:56:50;9.40;;;6.32;;
18580;SDS011;9420;50.876;7.012;2023-08-17T11:59:16;7.07;;;5.55;;
18580;SDS011;9420;50.876;7.012;2023-08-17T12:01:43;7.80;;;6.65;;
18580;SDS011;9420;50.876;7.012;2023-08-17T12:04:10;10.10;;;6.18;;
18580;SDS011;9420;50.876;7.012;2023-08-17T12:06:37;7.70;;;5.38;;
18580;SDS011;9420;50.876;7.012;2023-08-17T12:09:10;9.27;;;6.90;;
18580;SDS011;9420;50.876;7.012;2023-08-17T12:11:39;9.55;;;6.82;;
18580;SDS011;9420;50.876;7.012;2023-08-17T12:14:09;7.38;;;5.85;;
18580;SDS011;9420;50.876;7.012;2023-08-17T12:16:44;7.45;;;5.60;;
18580;SDS011;9420;50.876;7.012;2023-08-17T12:19:11;8.48;;;6.45;;
18580;SDS011;9420;50.876;7.012;2023-08-17T12:21:39;8.32;;;6.65;;
18580;SDS011;9420;50.876;7.012;2023-08-17T12:24:07;9.52;;;6.10;;
18580;SDS011;9420;50.876;7.012;2023-08-17T12:26:36;7.88;;;6.00;;
18580;SDS011;9420;50.876;7.012;2023-08-17T12:29:07;8.48;;;5.68;;
18580;SDS011;9420;50.876;7.012;2023-08-17T12:31:34;10.43;;;6.60;;
18580;SDS011;9420;50.876;7.012;2023-08-17T12:34:01;13.18;;;7.60;;
18580;SDS011;9420;50.876;7.012;2023-08-17T12:36:28;11.88;;;8.45;;
18580;SDS011;9420;50.876;7.012;2023-08-17T12:38:55;9.68;;;7.97;;
18580;SDS011;9420;50.876;7.012;2023-08-17T12:41:21;14.40;;;10.30;;
18580;SDS011;9420;50.876;7.012;2023-08-17T12:43:49;13.48;;;9.40;;
18580;SDS011;9420;50.876;7.012;2023-08-17T12:46:19;12.27;;;8.45;;
18580;SDS011;9420;50.876;7.012;2023-08-17T12:48:45;16.73;;;11.07;;
18580;SDS011;9420;50.876;7.012;2023-08-17T12:51:12;12.50;;;9.10;;
18580;SDS011;9420;50.876;7.012;2023-08-17T12:53:38;11.07;;;9.07;;
18580;SDS011;9420;50.876;7.012;2023-08-17T12:56:05;11.73;;;9.40;;
18580;SDS011;9420;50.876;7.012;2023-08-17T12:58:32;15.32;;;10.07;;
18580;SDS011;9420;50.876;7.012;2023-08-17T13:01:01;11.95;;;9.25;;
18580;SDS011;9420;50.876;7.012;2023-08-17T13:03:28;15.77;;;9.02;;
18580;SDS011;9420;50.876;7.012;2023-08-17T13:05:54;13.98;;;10.43;;
18580;SDS011;9420;50.876;7.012;2023-08-17T13:08:21;16.60;;;10.40;;
18580;SDS011;9420;50.876;7.012;2023-08-17T13:10:48;13.88;;;9.73;;
18580;SDS011;9420;50.876;7.012;2023-08-17T13:13:14;13.32;;;10.15;;
18580;SDS011;9420;50.876;7.012;2023-08-17T13:15:41;11.57;;;10.07;;
18580;SDS011;9420;50.876;7.012;2023-08-17T13:18:09;14.35;;;10.93;;
18580;SDS011;9420;50.876;7.012;2023-08-17T13:20:36;11.13;;;9.65;;
18580;SDS011;9420;50.876;7.012;2023-08-17T13:23:03;12.45;;;10.68;;
18580;SDS011;9420;50.876;7.012;2023-08-17T13:25:30;14.35;;;9.90;;
18580;SDS011;9420;50.876;7.012;2023-08-17T13:27:57;15.82;;;10.95;;
18580;SDS011;9420;50.876;7.012;2023-08-17T13:30:23;11.65;;;9.02;;
18580;SDS011;9420;50.876;7.012;2023-08-17T13:32:50;16.10;;;8.90;;
18580;SDS011;9420;50.876;7.012;2023-08-17T13:35:18;14.02;;;9.63;;
18580;SDS011;9420;50.876;7.012;2023-08-17T13:37:45;12.10;;;8.45;;
18580;SDS011;9420;50.876;7.012;2023-08-17T13:40:16;10.70;;;8.30;;
18580;SDS011;9420;50.876;7.012;2023-08-17T13:42:43;12.48;;;9.60;;
18580;SDS011;9420;50.876;7.012;2023-08-17T13:45:10;12.48;;;10.18;;
18580;SDS011;9420;50.876;7.012;2023-08-17T13:47:36;12.85;;;9.38;;
18580;SDS011;9420;50.876;7.012;2023-08-17T13:50:03;11.57;;;9.30;;
18580;SDS011;9420;50.876;7.012;2023-08-17T13:52:32;10.07;;;8.70;;
18580;SDS011;9420;50.876;7.012;2023-08-17T13:55:01;11.88;;;8.75;;
18580;SDS011;9420;50.876;7.012;2023-08-17T13:57:28;15.60;;;9.32;;
18580;SDS011;9420;50.876;7.012;2023-08-17T13:59:55;10.48;;;8.20;;
18580;SDS011;9420;50.876;7.012;2023-08-17T14:02:22;9.30;;;7.57;;
18580;SDS011;9420;50.876;7.012;2023-08-17T14:04:49;12.23;;;8.32;;
18580;SDS011;9420;50.876;7.012;2023-08-17T14:07:16;8.32;;;6.65;;
18580;SDS011;9420;50.876;7.012;2023-08-17T14:09:44;9.15;;;6.50;;
18580;SDS011;9420;50.876;7.012;2023-08-17T14:12:10;8.43;;;6.22;;
18580;SDS011;9420;50.876;7.012;2023-08-17T14:14:37;10.38;;;5.50;;
18580;SDS011;9420;50.876;7.012;2023-08-17T14:17:03;7.68;;;5.15;;
18580;SDS011;9420;50.876;7.012;2023-08-17T14:19:30;6.90;;;5.65;;
18580;SDS011;9420;50.876;7.012;2023-08-17T14:21:57;7.63;;;5.68;;
18580;SDS011;9420;50.876;7.012;2023-08-17T14:24:25;7.82;;;6.28;;
18580;SDS011;9420;50.876;7.012;2023-08-17T14:26:54;6.82;;;6.07;;
18580;SDS011;9420;50.876;7.012;2023-08-17T14:29:21;8.43;;;7.15;;
18580;SDS011;9420;50.876;7.012;2023-08-17T14:31:48;6.75;;;5.85;;
18580;SDS011;9420;50.876;7.012;2023-08-17T14:34:16;9.25;;;6.57;;
18580;SDS011;9420;50.876;7.012;2023-08-17T14:36:43;8.80;;;7.00;;
18580;SDS011;9420;50.876;7.012;2023-08-17T14:39:09;6.70;;;5.78;;
18580;SDS011;9420;50.876;7.012;2023-08-17T14:41:36;9.93;;;6.43;;
18580;SDS011;9420;50.876;7.012;2023-08-17T14:44:04;8.05;;;6.20;;
18580;SDS011;9420;50.876;7.012;2023-08-17T14:46:31;10.32;;;5.97;;
18580;SDS011;9420;50.876;7.012;2023-08-17T14:48:57;8.30;;;5.75;;
18580;SDS011;9420;50.876;7.012;2023-08-17T14:51:24;7.50;;;5.03;;
18580;SDS011;9420;50.876;7.012;2023-08-17T14:53:51;5.43;;;4.60;;
18580;SDS011;9420;50.876;7.012;2023-08-17T14:56:17;5.75;;;4.65;;